Jewell Valley, Virginia
Current Conditions -  °F | °C
As of 5:35 AM on Sunday 26 Oct 2014 (Local Time) from KJFZ Reporting Station
Overcast Overcast  
Wind Chill: 58°   Ceiling: 1300
Heat Index: 58°   Visibility: 10mi
Dew Point: 35°   Wind: 9mph
Humidity: 42%   Direction: 260°W
Pressure: 29.97"   Gusts: NA
Location:  37.2274°N, 81.8121°W
Report Text: KJFZ 260935Z AUTO 26008KT 10SM OVC013 14/02 A2997 RMK AO2 T01430015
Loading
Personal Weather Stations






























Interactive Weather Map
Tropical Storm Tracking
New forecast layout! Learn more

10-Day Weather Forecast

Advertisements
Track Severe Weather on mobile